sensor_id;sensor_type;location;lat;lon;timestamp;pressure;altitude;pressure_sealevel;temperature;humidity
30967;BME280;17649;51.836;8.330;2023-10-13T00:01:56;100728.41;;;16.92;100.00
30967;BME280;17649;51.836;8.330;2023-10-13T00:04:59;100725.75;;;17.04;100.00
30967;BME280;17649;51.836;8.330;2023-10-13T00:08:00;100728.09;;;17.18;100.00
30967;BME280;17649;51.836;8.330;2023-10-13T00:11:01;100719.63;;;17.25;100.00
30967;BME280;17649;51.836;8.330;2023-10-13T00:14:05;100711.19;;;17.22;100.00
30967;BME280;17649;51.836;8.330;2023-10-13T00:17:05;100720.69;;;17.23;100.00
30967;BME280;17649;51.836;8.330;2023-10-13T00:20:10;100723.28;;;17.34;100.00
30967;BME280;17649;51.836;8.330;2023-10-13T00:23:17;100723.19;;;17.24;100.00
30967;BME280;17649;51.836;8.330;2023-10-13T00:26:26;100717.47;;;17.31;100.00
30967;BME280;17649;51.836;8.330;2023-10-13T00:29:30;100726.47;;;17.38;100.00
30967;BME280;17649;51.836;8.330;2023-10-13T00:32:37;100721.03;;;17.29;100.00
30967;BME280;17649;51.836;8.330;2023-10-13T00:35:42;100709.94;;;17.37;100.00
30967;BME280;17649;51.836;8.330;2023-10-13T00:38:42;100708.16;;;17.38;100.00
30967;BME280;17649;51.836;8.330;2023-10-13T00:41:43;100704.09;;;17.45;100.00
30967;BME280;17649;51.836;8.330;2023-10-13T00:44:51;100699.22;;;17.40;100.00
30967;BME280;17649;51.836;8.330;2023-10-13T00:47:54;100697.81;;;17.36;100.00
30967;BME280;17649;51.836;8.330;2023-10-13T00:51:02;100693.28;;;17.38;100.00
30967;BME280;17649;51.836;8.330;2023-10-13T00:54:04;100684.31;;;17.31;100.00
30967;BME280;17649;51.836;8.330;2023-10-13T00:57:26;100671.97;;;17.22;100.00
30967;BME280;17649;51.836;8.330;2023-10-13T01:00:27;100679.69;;;17.23;100.00
30967;BME280;17649;51.836;8.330;2023-10-13T01:03:28;100672.50;;;17.37;100.00
30967;BME280;17649;51.836;8.330;2023-10-13T01:06:31;100670.66;;;17.27;100.00
30967;BME280;17649;51.836;8.330;2023-10-13T01:09:31;100673.16;;;17.29;100.00
30967;BME280;17649;51.836;8.330;2023-10-13T01:12:40;100680.78;;;17.21;100.00
30967;BME280;17649;51.836;8.330;2023-10-13T01:15:42;100674.41;;;17.14;100.00
30967;BME280;17649;51.836;8.330;2023-10-13T01:18:43;100659.38;;;17.27;100.00
30967;BME280;17649;51.836;8.330;2023-10-13T01:21:49;100655.41;;;17.33;100.00
30967;BME280;17649;51.836;8.330;2023-10-13T01:24:49;100652.97;;;17.20;100.00
30967;BME280;17649;51.836;8.330;2023-10-13T01:27:51;100655.19;;;17.24;100.00
30967;BME280;17649;51.836;8.330;2023-10-13T01:30:52;100648.13;;;17.36;100.00
30967;BME280;17649;51.836;8.330;2023-10-13T01:33:53;100645.22;;;17.29;100.00
30967;BME280;17649;51.836;8.330;2023-10-13T01:36:55;100643.47;;;17.19;100.00
30967;BME280;17649;51.836;8.330;2023-10-13T01:39:55;100645.56;;;17.25;100.00
30967;BME280;17649;51.836;8.330;2023-10-13T01:42:55;100645.56;;;17.25;100.00
30967;BME280;17649;51.836;8.330;2023-10-13T01:45:56;100641.91;;;17.27;100.00
30967;BME280;17649;51.836;8.330;2023-10-13T01:48:56;100631.94;;;17.21;100.00
30967;BME280;17649;51.836;8.330;2023-10-13T01:51:56;100629.88;;;17.25;100.00
30967;BME280;17649;51.836;8.330;2023-10-13T01:55:03;100627.72;;;17.30;100.00
30967;BME280;17649;51.836;8.330;2023-10-13T01:58:06;100630.78;;;17.35;100.00
30967;BME280;17649;51.836;8.330;2023-10-13T02:01:14;100630.16;;;17.43;100.00
30967;BME280;17649;51.836;8.330;2023-10-13T02:04:27;100615.16;;;17.45;100.00
30967;BME280;17649;51.836;8.330;2023-10-13T02:07:27;100622.56;;;17.40;100.00
30967;BME280;17649;51.836;8.330;2023-10-13T02:10:29;100617.09;;;17.43;100.00
30967;BME280;17649;51.836;8.330;2023-10-13T02:13:31;100606.84;;;17.40;100.00
30967;BME280;17649;51.836;8.330;2023-10-13T02:16:31;100607.38;;;17.34;100.00
30967;BME280;17649;51.836;8.330;2023-10-13T02:19:32;100604.34;;;17.28;100.00
30967;BME280;17649;51.836;8.330;2023-10-13T02:22:32;100598.41;;;17.26;100.00
30967;BME280;17649;51.836;8.330;2023-10-13T02:25:34;100596.97;;;17.22;100.00
30967;BME280;17649;51.836;8.330;2023-10-13T02:28:35;100602.06;;;17.24;100.00
30967;BME280;17649;51.836;8.330;2023-10-13T02:31:37;100587.94;;;17.26;100.00
30967;BME280;17649;51.836;8.330;2023-10-13T02:34:37;100589.59;;;17.27;100.00
30967;BME280;17649;51.836;8.330;2023-10-13T02:37:37;100585.91;;;17.30;100.00
30967;BME280;17649;51.836;8.330;2023-10-13T02:40:38;100576.41;;;17.29;100.00
30967;BME280;17649;51.836;8.330;2023-10-13T02:43:39;100572.94;;;17.28;100.00
30967;BME280;17649;51.836;8.330;2023-10-13T02:46:39;100577.66;;;17.35;100.00
30967;BME280;17649;51.836;8.330;2023-10-13T02:49:40;100563.13;;;17.42;100.00
30967;BME280;17649;51.836;8.330;2023-10-13T02:52:43;100558.13;;;17.39;100.00
30967;BME280;17649;51.836;8.330;2023-10-13T02:55:52;100559.53;;;17.43;100.00
30967;BME280;17649;51.836;8.330;2023-10-13T02:58:52;100552.94;;;17.48;100.00
30967;BME280;17649;51.836;8.330;2023-10-13T03:02:06;100552.13;;;17.48;100.00
30967;BME280;17649;51.836;8.330;2023-10-13T03:05:20;100551.84;;;17.51;100.00
30967;BME280;17649;51.836;8.330;2023-10-13T03:08:22;100548.81;;;17.46;100.00
30967;BME280;17649;51.836;8.330;2023-10-13T03:11:27;100539.44;;;17.43;100.00
30967;BME280;17649;51.836;8.330;2023-10-13T03:14:33;100540.56;;;17.50;100.00
30967;BME280;17649;51.836;8.330;2023-10-13T03:17:34;100537.81;;;17.52;100.00
30967;BME280;17649;51.836;8.330;2023-10-13T03:20:37;100535.75;;;17.55;100.00
30967;BME280;17649;51.836;8.330;2023-10-13T03:23:41;100526.66;;;17.50;100.00
30967;BME280;17649;51.836;8.330;2023-10-13T03:26:46;100526.50;;;17.42;100.00
30967;BME280;17649;51.836;8.330;2023-10-13T03:29:52;100530.38;;;17.47;100.00
30967;BME280;17649;51.836;8.330;2023-10-13T03:32:56;100513.28;;;17.43;100.00
30967;BME280;17649;51.836;8.330;2023-10-13T03:35:56;100515.78;;;17.45;100.00
30967;BME280;17649;51.836;8.330;2023-10-13T03:39:05;100508.31;;;17.40;100.00
30967;BME280;17649;51.836;8.330;2023-10-13T03:42:07;100506.50;;;17.31;100.00
30967;BME280;17649;51.836;8.330;2023-10-13T03:45:11;100502.72;;;17.24;100.00
30967;BME280;17649;51.836;8.330;2023-10-13T03:48:12;100496.16;;;17.29;100.00
30967;BME280;17649;51.836;8.330;2023-10-13T03:51:24;100493.13;;;17.34;100.00
30967;BME280;17649;51.836;8.330;2023-10-13T03:54:31;100486.59;;;17.49;100.00
30967;BME280;17649;51.836;8.330;2023-10-13T03:57:33;100489.34;;;17.48;100.00
30967;BME280;17649;51.836;8.330;2023-10-13T04:00:34;100484.53;;;17.53;100.00
30967;BME280;17649;51.836;8.330;2023-10-13T04:03:36;100482.25;;;17.59;100.00
30967;BME280;17649;51.836;8.330;2023-10-13T04:06:56;100479.78;;;17.68;100.00
30967;BME280;17649;51.836;8.330;2023-10-13T04:10:07;100471.81;;;17.69;100.00
30967;BME280;17649;51.836;8.330;2023-10-13T04:13:25;100470.34;;;17.76;100.00
30967;BME280;17649;51.836;8.330;2023-10-13T04:16:57;100472.13;;;17.76;100.00
30967;BME280;17649;51.836;8.330;2023-10-13T04:19:58;100466.91;;;17.76;100.00
30967;BME280;17649;51.836;8.330;2023-10-13T04:23:21;100451.09;;;17.87;100.00
30967;BME280;17649;51.836;8.330;2023-10-13T04:26:26;100446.81;;;17.86;100.00
30967;BME280;17649;51.836;8.330;2023-10-13T04:29:37;100449.22;;;17.68;100.00
30967;BME280;17649;51.836;8.330;2023-10-13T04:32:46;100442.78;;;17.82;100.00
30967;BME280;17649;51.836;8.330;2023-10-13T04:36:07;100446.69;;;17.87;100.00
30967;BME280;17649;51.836;8.330;2023-10-13T04:39:20;100440.44;;;17.79;100.00
30967;BME280;17649;51.836;8.330;2023-10-13T04:42:29;100436.34;;;17.86;100.00
30967;BME280;17649;51.836;8.330;2023-10-13T04:45:48;100436.88;;;17.80;100.00
30967;BME280;17649;51.836;8.330;2023-10-13T04:48:54;100432.47;;;17.90;100.00
30967;BME280;17649;51.836;8.330;2023-10-13T04:52:04;100424.19;;;17.85;100.00
30967;BME280;17649;51.836;8.330;2023-10-13T04:55:10;100411.13;;;17.75;100.00
30967;BME280;17649;51.836;8.330;2023-10-13T04:58:37;100414.00;;;17.72;100.00
30967;BME280;17649;51.836;8.330;2023-10-13T05:02:06;100410.28;;;17.75;100.00
30967;BME280;17649;51.836;8.330;2023-10-13T05:05:41;100399.94;;;17.83;100.00
30967;BME280;17649;51.836;8.330;2023-10-13T05:08:46;100396.66;;;17.81;100.00
30967;BME280;17649;51.836;8.330;2023-10-13T05:12:05;100390.59;;;17.71;100.00
30967;BME280;17649;51.836;8.330;2023-10-13T05:15:23;100391.56;;;17.79;100.00
30967;BME280;17649;51.836;8.330;2023-10-13T05:18:50;100396.66;;;17.71;100.00
30967;BME280;17649;51.836;8.330;2023-10-13T05:22:09;100384.50;;;17.70;100.00
30967;BME280;17649;51.836;8.330;2023-10-13T05:25:28;100381.00;;;17.50;100.00
30967;BME280;17649;51.836;8.330;2023-10-13T05:28:47;100370.16;;;17.65;100.00
30967;BME280;17649;51.836;8.330;2023-10-13T05:32:05;100381.41;;;17.55;100.00
30967;BME280;17649;51.836;8.330;2023-10-13T05:35:24;100366.22;;;17.80;100.00
30967;BME280;17649;51.836;8.330;2023-10-13T05:38:43;100361.41;;;17.75;100.00
30967;BME280;17649;51.836;8.330;2023-10-13T05:42:02;100348.25;;;17.66;100.00
30967;BME280;17649;51.836;8.330;2023-10-13T05:45:21;100335.09;;;17.77;100.00
30967;BME280;17649;51.836;8.330;2023-10-13T05:48:40;100350.22;;;17.83;100.00
30967;BME280;17649;51.836;8.330;2023-10-13T05:51:58;100329.72;;;17.78;100.00
30967;BME280;17649;51.836;8.330;2023-10-13T05:55:06;100331.66;;;17.86;100.00
30967;BME280;17649;51.836;8.330;2023-10-13T05:58:25;100323.91;;;17.84;100.00
30967;BME280;17649;51.836;8.330;2023-10-13T06:01:44;100330.25;;;17.82;100.00
30967;BME280;17649;51.836;8.330;2023-10-13T06:05:04;100335.50;;;17.92;100.00
30967;BME280;17649;51.836;8.330;2023-10-13T06:08:40;100326.56;;;17.75;100.00
30967;BME280;17649;51.836;8.330;2023-10-13T06:11:58;100334.66;;;17.81;100.00
30967;BME280;17649;51.836;8.330;2023-10-13T06:15:17;100317.75;;;17.85;100.00
30967;BME280;17649;51.836;8.330;2023-10-13T06:18:36;100323.09;;;17.84;100.00
30967;BME280;17649;51.836;8.330;2023-10-13T06:21:55;100321.56;;;17.81;100.00
30967;BME280;17649;51.836;8.330;2023-10-13T06:25:14;100323.53;;;17.89;100.00
30967;BME280;17649;51.836;8.330;2023-10-13T06:28:33;100320.50;;;17.74;100.00
30967;BME280;17649;51.836;8.330;2023-10-13T06:31:43;100320.75;;;17.81;100.00
30967;BME280;17649;51.836;8.330;2023-10-13T06:34:46;100310.56;;;17.87;100.00
30967;BME280;17649;51.836;8.330;2023-10-13T06:37:47;100321.31;;;17.94;100.00
30967;BME280;17649;51.836;8.330;2023-10-13T06:40:47;100307.97;;;17.87;100.00
30967;BME280;17649;51.836;8.330;2023-10-13T06:43:50;100312.38;;;17.77;100.00
30967;BME280;17649;51.836;8.330;2023-10-13T06:46:59;100325.47;;;17.87;100.00
30967;BME280;17649;51.836;8.330;2023-10-13T06:50:04;100319.13;;;17.90;100.00
30967;BME280;17649;51.836;8.330;2023-10-13T06:53:15;100317.72;;;17.95;100.00
30967;BME280;17649;51.836;8.330;2023-10-13T06:56:16;100324.75;;;18.04;100.00
30967;BME280;17649;51.836;8.330;2023-10-13T06:59:22;100325.56;;;17.95;100.00
30967;BME280;17649;51.836;8.330;2023-10-13T07:02:26;100318.94;;;18.10;100.00
30967;BME280;17649;51.836;8.330;2023-10-13T07:05:34;100313.41;;;18.13;100.00
30967;BME280;17649;51.836;8.330;2023-10-13T07:08:34;100323.91;;;18.13;100.00
30967;BME280;17649;51.836;8.330;2023-10-13T07:11:37;100316.47;;;18.18;100.00
30967;BME280;17649;51.836;8.330;2023-10-13T07:14:46;100299.34;;;18.24;100.00
30967;BME280;17649;51.836;8.330;2023-10-13T07:17:52;100294.13;;;18.14;100.00
30967;BME280;17649;51.836;8.330;2023-10-13T07:20:56;100290.13;;;18.20;100.00
30967;BME280;17649;51.836;8.330;2023-10-13T07:23:57;100284.84;;;18.30;100.00
30967;BME280;17649;51.836;8.330;2023-10-13T07:27:08;100283.34;;;18.27;100.00
30967;BME280;17649;51.836;8.330;2023-10-13T07:30:08;100295.53;;;18.18;100.00
30967;BME280;17649;51.836;8.330;2023-10-13T07:33:11;100294.41;;;18.31;100.00
30967;BME280;17649;51.836;8.330;2023-10-13T07:36:13;100288.69;;;18.45;100.00
30967;BME280;17649;51.836;8.330;2023-10-13T07:39:23;100273.81;;;18.45;100.00
30967;BME280;17649;51.836;8.330;2023-10-13T07:42:25;100282.75;;;18.43;100.00
30967;BME280;17649;51.836;8.330;2023-10-13T07:45:31;100278.06;;;18.46;100.00
30967;BME280;17649;51.836;8.330;2023-10-13T07:48:38;100285.44;;;18.70;100.00
30967;BME280;17649;51.836;8.330;2023-10-13T07:51:40;100279.16;;;18.91;100.00
30967;BME280;17649;51.836;8.330;2023-10-13T07:54:49;100268.75;;;18.99;100.00
30967;BME280;17649;51.836;8.330;2023-10-13T07:57:59;100274.50;;;19.02;100.00
30967;BME280;17649;51.836;8.330;2023-10-13T08:01:00;100271.66;;;19.23;100.00
30967;BME280;17649;51.836;8.330;2023-10-13T08:04:00;100264.25;;;19.54;100.00
30967;BME280;17649;51.836;8.330;2023-10-13T08:07:12;100270.16;;;19.74;100.00
30967;BME280;17649;51.836;8.330;2023-10-13T08:10:13;100262.28;;;19.74;100.00
30967;BME280;17649;51.836;8.330;2023-10-13T08:13:16;100263.22;;;20.09;100.00
30967;BME280;17649;51.836;8.330;2023-10-13T08:16:18;100253.38;;;20.11;100.00
30967;BME280;17649;51.836;8.330;2023-10-13T08:19:23;100250.47;;;20.22;100.00
30967;BME280;17649;51.836;8.330;2023-10-13T08:22:44;100253.81;;;20.06;100.00
30967;BME280;17649;51.836;8.330;2023-10-13T08:25:47;100252.59;;;20.18;100.00
30967;BME280;17649;51.836;8.330;2023-10-13T08:29:06;100254.81;;;20.31;100.00
30967;BME280;17649;51.836;8.330;2023-10-13T08:32:18;100254.34;;;20.10;100.00
30967;BME280;17649;51.836;8.330;2023-10-13T08:35:28;100249.53;;;20.31;100.00
30967;BME280;17649;51.836;8.330;2023-10-13T08:38:34;100240.75;;;20.40;100.00
30967;BME280;17649;51.836;8.330;2023-10-13T08:41:50;100240.03;;;20.38;100.00
30967;BME280;17649;51.836;8.330;2023-10-13T08:45:12;100225.66;;;20.42;100.00
30967;BME280;17649;51.836;8.330;2023-10-13T08:48:28;100216.72;;;20.35;100.00
30967;BME280;17649;51.836;8.330;2023-10-13T08:51:33;100219.19;;;20.37;100.00
30967;BME280;17649;51.836;8.330;2023-10-13T08:54:54;100196.16;;;20.57;100.00
30967;BME280;17649;51.836;8.330;2023-10-13T08:58:12;100190.53;;;20.51;100.00
30967;BME280;17649;51.836;8.330;2023-10-13T09:01:15;100189.69;;;20.43;100.00
30967;BME280;17649;51.836;8.330;2023-10-13T09:04:34;100181.38;;;20.56;100.00
30967;BME280;17649;51.836;8.330;2023-10-13T09:07:44;100181.06;;;20.59;100.00
30967;BME280;17649;51.836;8.330;2023-10-13T09:10:46;100179.78;;;20.71;100.00
30967;BME280;17649;51.836;8.330;2023-10-13T09:14:12;100162.56;;;21.09;100.00
30967;BME280;17649;51.836;8.330;2023-10-13T09:17:20;100153.25;;;21.47;100.00
30967;BME280;17649;51.836;8.330;2023-10-13T09:20:35;100163.28;;;21.35;100.00
30967;BME280;17649;51.836;8.330;2023-10-13T09:23:45;100148.81;;;21.39;100.00
30967;BME280;17649;51.836;8.330;2023-10-13T09:26:45;100136.47;;;21.48;100.00
30967;BME280;17649;51.836;8.330;2023-10-13T09:29:56;100133.38;;;22.00;100.00
30967;BME280;17649;51.836;8.330;2023-10-13T09:33:00;100115.34;;;21.81;100.00
30967;BME280;17649;51.836;8.330;2023-10-13T09:36:05;100110.25;;;22.26;100.00
30967;BME280;17649;51.836;8.330;2023-10-13T09:39:12;100094.84;;;22.69;100.00
30967;BME280;17649;51.836;8.330;2023-10-13T09:42:29;100093.88;;;22.39;100.00
30967;BME280;17649;51.836;8.330;2023-10-13T09:45:30;100084.44;;;22.22;100.00
30967;BME280;17649;51.836;8.330;2023-10-13T09:48:37;100076.72;;;22.12;100.00
30967;BME280;17649;51.836;8.330;2023-10-13T09:51:41;100076.78;;;22.35;100.00
30967;BME280;17649;51.836;8.330;2023-10-13T09:55:00;100072.69;;;22.33;100.00
30967;BME280;17649;51.836;8.330;2023-10-13T09:58:04;100065.97;;;22.53;100.00
30967;BME280;17649;51.836;8.330;2023-10-13T10:01:14;100063.84;;;22.71;100.00
30967;BME280;17649;51.836;8.330;2023-10-13T10:04:21;100062.84;;;22.72;100.00
30967;BME280;17649;51.836;8.330;2023-10-13T10:07:26;100050.94;;;22.76;100.00
30967;BME280;17649;51.836;8.330;2023-10-13T10:10:42;100049.78;;;22.56;100.00
30967;BME280;17649;51.836;8.330;2023-10-13T10:13:53;100045.28;;;22.65;100.00
30967;BME280;17649;51.836;8.330;2023-10-13T10:20:01;100038.19;;;22.65;100.00
30967;BME280;17649;51.836;8.330;2023-10-13T10:23:06;100030.53;;;22.55;100.00
30967;BME280;17649;51.836;8.330;2023-10-13T10:26:21;100027.34;;;22.60;100.00
30967;BME280;17649;51.836;8.330;2023-10-13T10:29:21;100025.41;;;23.00;100.00
30967;BME280;17649;51.836;8.330;2023-10-13T10:32:37;100008.41;;;23.17;100.00
30967;BME280;17649;51.836;8.330;2023-10-13T10:35:40;100015.16;;;23.19;100.00
30967;BME280;17649;51.836;8.330;2023-10-13T10:38:53;100013.22;;;22.99;100.00
30967;BME280;17649;51.836;8.330;2023-10-13T10:41:55;100027.16;;;23.07;100.00
30967;BME280;17649;51.836;8.330;2023-10-13T10:45:01;100020.25;;;23.21;100.00
30967;BME280;17649;51.836;8.330;2023-10-13T10:48:05;100003.88;;;23.40;100.00
30967;BME280;17649;51.836;8.330;2023-10-13T10:51:17;99999.81;;;24.03;100.00
30967;BME280;17649;51.836;8.330;2023-10-13T10:54:23;99986.09;;;24.72;100.00
30967;BME280;17649;51.836;8.330;2023-10-13T10:57:30;99980.25;;;24.83;100.00
30967;BME280;17649;51.836;8.330;2023-10-13T11:00:37;99967.50;;;24.65;100.00
30967;BME280;17649;51.836;8.330;2023-10-13T11:03:57;99961.09;;;25.37;100.00
30967;BME280;17649;51.836;8.330;2023-10-13T11:06:57;99961.56;;;24.85;100.00
30967;BME280;17649;51.836;8.330;2023-10-13T11:10:07;99938.94;;;25.45;100.00
30967;BME280;17649;51.836;8.330;2023-10-13T11:13:11;99950.63;;;25.64;100.00
30967;BME280;17649;51.836;8.330;2023-10-13T11:16:19;99942.19;;;25.47;100.00
30967;BME280;17649;51.836;8.330;2023-10-13T11:19:36;99941.41;;;25.53;100.00
30967;BME280;17649;51.836;8.330;2023-10-13T11:22:37;99935.69;;;26.10;100.00
30967;BME280;17649;51.836;8.330;2023-10-13T11:25:42;99948.00;;;25.29;100.00
30967;BME280;17649;51.836;8.330;2023-10-13T11:28:51;99946.44;;;24.79;100.00
30967;BME280;17649;51.836;8.330;2023-10-13T11:31:51;99936.47;;;25.02;100.00
30967;BME280;17649;51.836;8.330;2023-10-13T11:34:59;99936.34;;;24.89;100.00
30967;BME280;17649;51.836;8.330;2023-10-13T11:37:59;99928.56;;;25.09;100.00
30967;BME280;17649;51.836;8.330;2023-10-13T11:41:15;99916.94;;;25.03;100.00
30967;BME280;17649;51.836;8.330;2023-10-13T11:44:16;99919.84;;;25.15;100.00
30967;BME280;17649;51.836;8.330;2023-10-13T11:47:19;99914.44;;;25.30;100.00
30967;BME280;17649;51.836;8.330;2023-10-13T11:50:47;99921.59;;;25.97;100.00
30967;BME280;17649;51.836;8.330;2023-10-13T11:53:48;99919.38;;;26.27;100.00
30967;BME280;17649;51.836;8.330;2023-10-13T11:56:51;99912.06;;;25.48;100.00
30967;BME280;17649;51.836;8.330;2023-10-13T11:59:52;99918.84;;;25.22;100.00
30967;BME280;17649;51.836;8.330;2023-10-13T12:02:56;99894.94;;;26.44;100.00
30967;BME280;17649;51.836;8.330;2023-10-13T12:06:15;99885.69;;;26.87;100.00
30967;BME280;17649;51.836;8.330;2023-10-13T12:09:34;99876.88;;;27.06;100.00
30967;BME280;17649;51.836;8.330;2023-10-13T12:12:53;99871.94;;;28.31;100.00
30967;BME280;17649;51.836;8.330;2023-10-13T12:15:54;99874.22;;;28.20;100.00
30967;BME280;17649;51.836;8.330;2023-10-13T12:18:56;99860.34;;;28.18;100.00
30967;BME280;17649;51.836;8.330;2023-10-13T12:21:57;99849.06;;;27.98;100.00
30967;BME280;17649;51.836;8.330;2023-10-13T12:25:04;99862.91;;;28.32;100.00
30967;BME280;17649;51.836;8.330;2023-10-13T12:28:05;99848.31;;;27.84;100.00
30967;BME280;17649;51.836;8.330;2023-10-13T12:31:32;99833.97;;;28.17;100.00
30967;BME280;17649;51.836;8.330;2023-10-13T12:34:33;99844.03;;;28.08;100.00
30967;BME280;17649;51.836;8.330;2023-10-13T12:37:52;99838.22;;;26.52;100.00
30967;BME280;17649;51.836;8.330;2023-10-13T12:41:07;99835.53;;;26.59;100.00
30967;BME280;17649;51.836;8.330;2023-10-13T12:44:26;99825.97;;;26.44;100.00
30967;BME280;17649;51.836;8.330;2023-10-13T12:47:45;99832.16;;;27.10;100.00
30967;BME280;17649;51.836;8.330;2023-10-13T12:51:04;99820.81;;;28.65;100.00
30967;BME280;17649;51.836;8.330;2023-10-13T12:54:20;99828.69;;;28.10;100.00
30967;BME280;17649;51.836;8.330;2023-10-13T12:57:23;99826.25;;;28.34;100.00
30967;BME280;17649;51.836;8.330;2023-10-13T13:00:24;99822.34;;;28.36;100.00
30967;BME280;17649;51.836;8.330;2023-10-13T13:03:26;99827.13;;;28.03;100.00
30967;BME280;17649;51.836;8.330;2023-10-13T13:06:29;99818.56;;;27.31;100.00
30967;BME280;17649;51.836;8.330;2023-10-13T13:09:30;99815.56;;;27.90;100.00
30967;BME280;17649;51.836;8.330;2023-10-13T13:12:31;99819.88;;;27.53;100.00
30967;BME280;17649;51.836;8.330;2023-10-13T13:15:31;99818.28;;;27.46;100.00
30967;BME280;17649;51.836;8.330;2023-10-13T13:18:31;99809.88;;;27.49;100.00
30967;BME280;17649;51.836;8.330;2023-10-13T13:21:33;99790.16;;;27.63;100.00
30967;BME280;17649;51.836;8.330;2023-10-13T13:24:33;99799.06;;;27.06;100.00
30967;BME280;17649;51.836;8.330;2023-10-13T13:27:33;99793.28;;;27.22;100.00
30967;BME280;17649;51.836;8.330;2023-10-13T13:30:34;99784.88;;;26.80;100.00
30967;BME280;17649;51.836;8.330;2023-10-13T13:33:35;99788.41;;;26.48;100.00
30967;BME280;17649;51.836;8.330;2023-10-13T13:36:39;99793.75;;;26.21;100.00
30967;BME280;17649;51.836;8.330;2023-10-13T13:39:44;99786.34;;;25.57;100.00
30967;BME280;17649;51.836;8.330;2023-10-13T13:42:45;99779.50;;;25.89;100.00
30967;BME280;17649;51.836;8.330;2023-10-13T13:45:46;99788.78;;;25.32;100.00
30967;BME280;17649;51.836;8.330;2023-10-13T13:48:46;99789.81;;;24.90;100.00
30967;BME280;17649;51.836;8.330;2023-10-13T13:51:51;99785.69;;;25.15;100.00
30967;BME280;17649;51.836;8.330;2023-10-13T13:54:51;99782.34;;;25.88;100.00
30967;BME280;17649;51.836;8.330;2023-10-13T13:57:51;99787.09;;;26.83;100.00
30967;BME280;17649;51.836;8.330;2023-10-13T14:00:52;99784.31;;;26.65;100.00
30967;BME280;17649;51.836;8.330;2023-10-13T14:03:52;99770.53;;;25.77;100.00
30967;BME280;17649;51.836;8.330;2023-10-13T14:06:56;99777.59;;;24.89;100.00
30967;BME280;17649;51.836;8.330;2023-10-13T14:09:56;99773.94;;;24.90;100.00
30967;BME280;17649;51.836;8.330;2023-10-13T14:13:06;99768.72;;;25.03;100.00
30967;BME280;17649;51.836;8.330;2023-10-13T14:16:13;99764.75;;;25.53;100.00
30967;BME280;17649;51.836;8.330;2023-10-13T14:19:20;99760.19;;;25.14;100.00
30967;BME280;17649;51.836;8.330;2023-10-13T14:22:29;99777.13;;;24.79;100.00
30967;BME280;17649;51.836;8.330;2023-10-13T14:25:37;99769.50;;;24.56;100.00
30967;BME280;17649;51.836;8.330;2023-10-13T14:28:37;99750.34;;;24.47;100.00
30967;BME280;17649;51.836;8.330;2023-10-13T14:31:46;99765.31;;;24.40;100.00
30967;BME280;17649;51.836;8.330;2023-10-13T14:34:49;99740.81;;;24.25;100.00
30967;BME280;17649;51.836;8.330;2023-10-13T14:37:54;99754.47;;;24.28;100.00
30967;BME280;17649;51.836;8.330;2023-10-13T14:40:57;99767.41;;;24.17;100.00
30967;BME280;17649;51.836;8.330;2023-10-13T14:43:58;99754.50;;;24.07;100.00
30967;BME280;17649;51.836;8.330;2023-10-13T14:47:05;99759.41;;;24.10;100.00
30967;BME280;17649;51.836;8.330;2023-10-13T14:50:05;99756.94;;;24.02;100.00
30967;BME280;17649;51.836;8.330;2023-10-13T14:53:06;99764.84;;;24.02;100.00
30967;BME280;17649;51.836;8.330;2023-10-13T14:56:06;99764.44;;;23.98;100.00
30967;BME280;17649;51.836;8.330;2023-10-13T14:59:08;99772.34;;;23.98;100.00
30967;BME280;17649;51.836;8.330;2023-10-13T15:02:16;99764.94;;;23.87;100.00
30967;BME280;17649;51.836;8.330;2023-10-13T15:05:17;99762.31;;;23.87;100.00
30967;BME280;17649;51.836;8.330;2023-10-13T15:08:17;99757.72;;;23.96;100.00
30967;BME280;17649;51.836;8.330;2023-10-13T15:11:18;99763.31;;;23.86;100.00
30967;BME280;17649;51.836;8.330;2023-10-13T15:14:19;99760.97;;;23.76;100.00
30967;BME280;17649;51.836;8.330;2023-10-13T15:17:20;99765.00;;;23.72;100.00
30967;BME280;17649;51.836;8.330;2023-10-13T15:20:24;99762.22;;;23.80;100.00
30967;BME280;17649;51.836;8.330;2023-10-13T15:23:24;99765.94;;;23.65;100.00
30967;BME280;17649;51.836;8.330;2023-10-13T15:26:25;99770.50;;;23.71;100.00
30967;BME280;17649;51.836;8.330;2023-10-13T15:29:25;99775.06;;;23.62;100.00
30967;BME280;17649;51.836;8.330;2023-10-13T15:32:26;99765.16;;;23.49;100.00
30967;BME280;17649;51.836;8.330;2023-10-13T15:35:42;99753.94;;;23.41;100.00
30967;BME280;17649;51.836;8.330;2023-10-13T15:38:42;99761.56;;;23.36;100.00
30967;BME280;17649;51.836;8.330;2023-10-13T15:41:43;99746.31;;;23.31;100.00
30967;BME280;17649;51.836;8.330;2023-10-13T15:44:43;99751.09;;;23.42;100.00
30967;BME280;17649;51.836;8.330;2023-10-13T15:47:44;99755.56;;;23.42;100.00
30967;BME280;17649;51.836;8.330;2023-10-13T15:50:45;99741.31;;;23.36;100.00
30967;BME280;17649;51.836;8.330;2023-10-13T15:53:49;99738.19;;;23.33;100.00
30967;BME280;17649;51.836;8.330;2023-10-13T15:56:51;99744.63;;;23.24;100.00
30967;BME280;17649;51.836;8.330;2023-10-13T15:59:51;99744.75;;;23.37;100.00
30967;BME280;17649;51.836;8.330;2023-10-13T16:02:56;99737.00;;;23.14;100.00
30967;BME280;17649;51.836;8.330;2023-10-13T16:06:02;99740.84;;;23.11;100.00
30967;BME280;17649;51.836;8.330;2023-10-13T16:09:04;99742.94;;;23.01;100.00
30967;BME280;17649;51.836;8.330;2023-10-13T16:12:07;99745.78;;;23.21;100.00